Portada
METAR-TAF:

METAR-TAF

Aeroports :

Ahwaz, Iran

latitud: 31-20N, longitud: 048-40E, altitud: 20 m

Observació

L'informe es va fer fa 1 hora i 7 minuts, a les 21:00 UTC
Vent 6 kt del Oest/Nord-Oest
Temperatura 30°C
Humitat 24%
Pressió 1008 hPa
Visibilitat 10 km o més
sense núvols per sota de 1500 mi sense presència de cumulonimbus.

METAR: OIAW 252100Z 30006KT CAVOK 30/07 Q1008

Hora: 02:37 (22:07 UTC)

Pronòstic

L'informe es va fer fa 4 hores i 37 minuts, a les 17:30 UTC
Pronòstic vàlid del 25 a les 18 UTC al 26 a les 24 UTC
Vent 12 kt del Oest
Visibilitat: 6000 m
Temporalment
l' 26 a les 12 UTC al 26 a les 18 UTC
Vent 22 kt del Oest
Visibilitat: 4000 m

TAF: OIAW 251730Z 2518/2624 28012KT 6000 NSC TEMPO 2612/2618 28022KT 4000 SA/DU

Observacions i pronòstics meteorològics de més de 4000 aeroports (METAR i TAF).

Les estacions disponibles són els punts grocs i vermells al mapa.

Posi el ratolí al punt desitjat per veure el nom de l'estació.

Feu clic per veure les observacions i els pronòstics meteorològics.

Per canviar el mapa: feu clic els botons verds amb una creu de color negre per apropar; al botó verd amb un guió per allunyar la imatge; o en les fletxes verdes per a mapes adjacents.


METAR-TAF: